Terminal Aerodrome Forecast
Issued by NWS Charleston, WV

Home | Current Version | Previous Version | Text Only | Print | Product List | Glossary On
Versions: 1 2 3 4 5 6 7 8 9 10 11 12 13 14 15 16 17 18 19 20 21 22 23 24 25 26 27 28 29 30
000
FTUS41 KRLX 261700 CCA
TAFBKW
TAF COR
KBKW 261755Z 2618/2718 35007KT 1/4SM FG BKN002
     FM261830 34008KT 2SM BR BKN008
     FM261900 34010KT P6SM BKN015
     FM262000 35010G16KT P6SM SCT030
     FM270000 34005KT P6SM FEW045
     FM271500 32012G20KT P6SM FEW050=

USA.gov is the U.S. government's official web portal to all federal, state and local government web resources and services.